Disclaimer

Please do not use the information listed here in-flight or in-navigation, as they are not provided to us by the airports but are provided by volunteers, so they might be outdated.

Search


Regions


Airport information page

Radio informations:
Tower (TWR) - 122.9 MHz
Approach (APP) - 122.9 MHz

Airport informations:
Latitude: 56° 27' 09.00" N
Longitude: 003° 01' 33.00" W
Elevation: 17 feet - 5 meters
Operating hours: Remarks
Operating agency: Civil government, landing fees and diplomatic clearance may be required
Timezone: UTC 0(+1DT) - Last Sunday in March to last Sunday in October
Fuel: Jet A1, without icing nhibitor.

100/130 MIL Spec, low lead, aviation gasoline (BLUE)

Runway information:
10/28 - 4593 x 98 feet< - >1400 x 30 meters

Recent METARs:
EGPN 201450Z 08011KT 040V100 9999 SHRA FEW010CB SCT028 07/04 Q1021
EGPN 201520Z 08014KT 9999 VCSH FEW010CB SCT028 07/04 Q1020
EGPN 201550Z 08013KT 9000 SHRA FEW010CB SCT028 07/05 Q1020

Airport on the map: